createdAt,value
2018-12-16T00:00:58.960Z,1018.15
2018-12-16T00:01:58.915Z,1018.17
2018-12-16T00:02:58.860Z,1018.12
2018-12-16T00:03:58.809Z,1018.08
2018-12-16T00:04:58.760Z,1018.10
2018-12-16T00:05:58.710Z,1018.14
2018-12-16T00:06:58.660Z,1018.18
2018-12-16T00:07:58.609Z,1018.15
2018-12-16T00:08:58.560Z,1018.03
2018-12-16T00:09:58.510Z,1018.13
2018-12-16T00:10:58.461Z,1017.99
2018-12-16T00:11:58.410Z,1017.96
2018-12-16T00:12:58.362Z,1018.00
2018-12-16T00:13:58.310Z,1017.95
2018-12-16T00:14:58.260Z,1017.98
2018-12-16T00:15:58.210Z,1017.93
2018-12-16T00:16:58.159Z,1017.99
2018-12-16T00:17:58.110Z,1018.01
2018-12-16T00:18:58.061Z,1018.07
2018-12-16T00:19:58.014Z,1017.97
2018-12-16T00:20:57.960Z,1017.97
2018-12-16T00:21:57.910Z,1017.98
2018-12-16T00:22:57.862Z,1018.00
2018-12-16T00:23:57.810Z,1018.01
2018-12-16T00:24:57.760Z,1018.03
2018-12-16T00:25:57.712Z,1018.01
2018-12-16T00:26:57.661Z,1017.96
2018-12-16T00:27:57.610Z,1017.98
2018-12-16T00:28:57.561Z,1017.97
2018-12-16T00:29:57.511Z,1017.90
2018-12-16T00:30:57.461Z,1017.88
2018-12-16T00:31:57.411Z,1017.88
2018-12-16T00:32:57.361Z,1017.94
2018-12-16T00:33:57.311Z,1017.85
2018-12-16T00:34:57.260Z,1017.89
2018-12-16T00:35:57.210Z,1017.88
2018-12-16T00:36:57.160Z,1017.84
2018-12-16T00:37:57.109Z,1017.81
2018-12-16T00:38:57.067Z,1017.78
2018-12-16T00:39:57.010Z,1017.82
2018-12-16T00:40:56.961Z,1017.83
2018-12-16T00:41:56.915Z,1017.78
2018-12-16T00:42:56.863Z,1017.73
2018-12-16T00:43:56.809Z,1017.75
2018-12-16T00:44:56.765Z,1017.73
2018-12-16T00:45:56.711Z,1017.73
2018-12-16T00:46:56.662Z,1017.71
2018-12-16T00:47:56.612Z,1017.67
2018-12-16T00:48:56.560Z,1017.61
2018-12-16T00:49:56.512Z,1017.67
2018-12-16T00:50:56.461Z,1017.63
2018-12-16T00:51:56.410Z,1017.68
2018-12-16T00:52:56.360Z,1017.60
2018-12-16T00:53:56.310Z,1017.62
2018-12-16T00:54:56.260Z,1017.60
2018-12-16T00:55:56.210Z,1017.55
2018-12-16T00:56:56.160Z,1017.59
2018-12-16T00:57:56.171Z,1017.52
2018-12-16T00:58:56.060Z,1017.50
2018-12-16T00:59:56.020Z,1017.48
2018-12-16T01:00:55.959Z,1017.59
2018-12-16T01:01:55.910Z,1017.52
2018-12-16T01:02:55.861Z,1017.54
2018-12-16T01:03:55.810Z,1017.57
2018-12-16T01:04:55.760Z,1017.52
2018-12-16T01:05:55.710Z,1017.53
2018-12-16T01:06:55.660Z,1017.52
2018-12-16T01:07:55.662Z,1017.47
2018-12-16T01:08:55.560Z,1017.49
2018-12-16T01:09:55.511Z,1017.47
2018-12-16T01:10:55.509Z,1017.46
2018-12-16T01:11:55.409Z,1017.48
2018-12-16T01:12:55.358Z,1017.42
2018-12-16T01:13:55.312Z,1017.37
2018-12-16T01:14:55.259Z,1017.49
2018-12-16T01:15:55.208Z,1017.40
2018-12-16T01:16:55.476Z,1017.47
2018-12-16T01:17:55.126Z,1017.38
2018-12-16T01:18:55.064Z,1017.42
2018-12-16T01:19:55.081Z,1017.42
2018-12-16T01:20:54.959Z,1017.35
2018-12-16T01:21:54.910Z,1017.31
2018-12-16T01:22:54.860Z,1017.40
2018-12-16T01:23:54.811Z,1017.29
2018-12-16T01:24:54.759Z,1017.30
2018-12-16T01:25:54.709Z,1017.25
2018-12-16T01:26:54.658Z,1017.21
2018-12-16T01:27:54.607Z,1017.27
2018-12-16T01:28:54.559Z,1017.23
2018-12-16T01:29:54.512Z,1017.35
2018-12-16T01:30:54.458Z,1017.16
2018-12-16T01:31:54.408Z,1017.18
2018-12-16T01:32:54.358Z,1017.26
2018-12-16T01:33:54.309Z,1017.19
2018-12-16T01:34:54.261Z,1017.16
2018-12-16T01:35:54.211Z,1017.16
2018-12-16T01:36:54.159Z,1017.14
2018-12-16T01:37:54.108Z,1017.20
2018-12-16T01:38:54.059Z,1017.16
2018-12-16T01:39:54.008Z,1017.20
2018-12-16T01:40:53.958Z,1017.18
2018-12-16T01:41:53.908Z,1017.07
2018-12-16T01:42:53.858Z,1017.07
2018-12-16T01:43:53.807Z,1017.04
2018-12-16T01:44:53.757Z,1017.03
2018-12-16T01:45:53.708Z,1017.01
2018-12-16T01:46:53.657Z,1017.02
2018-12-16T01:47:53.613Z,1016.94
2018-12-16T01:48:53.556Z,1016.93
2018-12-16T01:49:53.507Z,1016.95
2018-12-16T01:50:53.456Z,1016.89
2018-12-16T01:51:53.407Z,1016.89
2018-12-16T01:52:53.357Z,1016.82
2018-12-16T01:53:53.307Z,1016.81
2018-12-16T01:54:53.257Z,1016.85
2018-12-16T01:55:53.206Z,1016.81
2018-12-16T01:56:53.156Z,1016.82
2018-12-16T01:57:53.107Z,1016.85
2018-12-16T01:58:53.057Z,1016.82
2018-12-16T01:59:53.005Z,1016.82
2018-12-16T02:00:52.958Z,1016.79
2018-12-16T02:01:52.906Z,1016.71
2018-12-16T02:02:52.856Z,1016.66
2018-12-16T02:03:52.808Z,1016.56
2018-12-16T02:04:52.756Z,1016.60
2018-12-16T02:05:52.706Z,1016.66
2018-12-16T02:06:52.656Z,1016.55
2018-12-16T02:07:52.607Z,1016.57
2018-12-16T02:08:52.556Z,1016.51
2018-12-16T02:09:52.511Z,1016.49
2018-12-16T02:10:52.456Z,1016.50
2018-12-16T02:11:52.406Z,1016.57
2018-12-16T02:12:52.355Z,1016.49
2018-12-16T02:13:52.304Z,1016.51
2018-12-16T02:14:52.256Z,1016.51
2018-12-16T02:15:52.204Z,1016.53
2018-12-16T02:16:52.208Z,1016.56
2018-12-16T02:17:52.106Z,1016.47
2018-12-16T02:18:52.054Z,1016.43
2018-12-16T02:19:52.005Z,1016.46
2018-12-16T02:20:51.954Z,1016.42
2018-12-16T02:21:51.906Z,1016.42
2018-12-16T02:22:56.878Z,1016.44
2018-12-16T02:23:51.804Z,1016.39
2018-12-16T02:24:51.757Z,1016.40
2018-12-16T02:25:51.704Z,1016.39
2018-12-16T02:26:51.705Z,1016.38
2018-12-16T02:27:51.604Z,1016.44
2018-12-16T02:28:51.554Z,1016.41
2018-12-16T02:29:51.504Z,1016.44
2018-12-16T02:30:51.455Z,1016.39
2018-12-16T02:31:51.406Z,1016.38
2018-12-16T02:32:51.354Z,1016.35
2018-12-16T02:33:51.304Z,1016.35
2018-12-16T02:34:51.255Z,1016.28
2018-12-16T02:35:51.202Z,1016.28
2018-12-16T02:36:51.153Z,1016.29
2018-12-16T02:37:51.104Z,1016.28
2018-12-16T02:38:51.053Z,1016.29
2018-12-16T02:39:51.319Z,1016.38
2018-12-16T02:40:51.272Z,1016.31
2018-12-16T02:41:50.902Z,1016.34
2018-12-16T02:42:50.853Z,1016.37
2018-12-16T02:43:50.802Z,1016.34
2018-12-16T02:44:50.752Z,1016.31
2018-12-16T02:45:50.703Z,1016.27
2018-12-16T02:46:50.655Z,1016.28
2018-12-16T02:47:50.602Z,1016.22
2018-12-16T02:48:50.552Z,1016.28
2018-12-16T02:49:50.501Z,1016.26
2018-12-16T02:50:50.451Z,1016.34
2018-12-16T02:51:50.402Z,1016.29
2018-12-16T02:52:50.357Z,1016.32
2018-12-16T02:53:50.303Z,1016.32
2018-12-16T02:54:50.253Z,1016.33
2018-12-16T02:55:50.201Z,1016.26
2018-12-16T02:56:50.157Z,1016.26
2018-12-16T02:57:50.103Z,1016.28
2018-12-16T02:58:50.057Z,1016.25
2018-12-16T02:59:50.001Z,1016.26
2018-12-16T03:00:49.952Z,1016.22
2018-12-16T03:01:49.904Z,1016.17
2018-12-16T03:02:49.852Z,1016.13
2018-12-16T03:03:49.849Z,1016.07
2018-12-16T03:04:49.753Z,1016.01
2018-12-16T03:05:49.702Z,1016.03
2018-12-16T03:06:49.651Z,1016.04
2018-12-16T03:07:49.600Z,1016.04
2018-12-16T03:08:49.551Z,1016.04
2018-12-16T03:09:49.503Z,1016.02
2018-12-16T03:10:49.451Z,1016.05
2018-12-16T03:11:49.403Z,1015.95
2018-12-16T03:12:49.353Z,1015.97
2018-12-16T03:13:49.302Z,1015.92
2018-12-16T03:14:49.251Z,1015.88
2018-12-16T03:15:49.200Z,1015.89
2018-12-16T03:16:49.154Z,1015.85
2018-12-16T03:17:49.100Z,1015.86
2018-12-16T03:18:49.051Z,1015.83
2018-12-16T03:19:49.000Z,1015.86
2018-12-16T03:20:49.001Z,1015.88
2018-12-16T03:21:48.901Z,1015.83
2018-12-16T03:22:48.852Z,1015.81
2018-12-16T03:23:48.798Z,1015.81
2018-12-16T03:24:48.749Z,1015.76
2018-12-16T03:25:48.751Z,1015.75
2018-12-16T03:26:48.650Z,1015.87
2018-12-16T03:27:48.599Z,1015.85
2018-12-16T03:28:48.549Z,1015.85
2018-12-16T03:29:48.500Z,1015.78
2018-12-16T03:30:48.451Z,1015.80
2018-12-16T03:31:48.399Z,1015.73
2018-12-16T03:32:48.351Z,1015.73
2018-12-16T03:33:48.300Z,1015.72
2018-12-16T03:34:48.251Z,1015.72
2018-12-16T03:35:48.205Z,1015.68
2018-12-16T03:36:48.150Z,1015.71
2018-12-16T03:37:48.100Z,1015.71
2018-12-16T03:38:48.050Z,1015.72
2018-12-16T03:39:47.998Z,1015.71
2018-12-16T03:40:47.948Z,1015.66
2018-12-16T03:41:47.899Z,1015.70
2018-12-16T03:42:47.850Z,1015.67
2018-12-16T03:43:47.799Z,1015.68
2018-12-16T03:44:47.751Z,1015.65
2018-12-16T03:45:47.700Z,1015.63
2018-12-16T03:46:47.650Z,1015.62
2018-12-16T03:47:47.605Z,1015.65
2018-12-16T03:48:47.547Z,1015.62
2018-12-16T03:49:47.499Z,1015.60
2018-12-16T03:50:47.449Z,1015.58
2018-12-16T03:51:47.397Z,1015.60
2018-12-16T03:52:47.348Z,1015.57
2018-12-16T03:53:47.299Z,1015.63
2018-12-16T03:54:47.249Z,1015.63
2018-12-16T03:55:47.198Z,1015.64
2018-12-16T03:56:47.152Z,1015.59
2018-12-16T03:57:47.097Z,1015.57
2018-12-16T03:58:47.049Z,1015.59
2018-12-16T03:59:47.048Z,1015.58
2018-12-16T04:00:46.948Z,1015.55
2018-12-16T04:01:46.898Z,1015.56
2018-12-16T04:02:46.848Z,1015.55
2018-12-16T04:03:46.798Z,1015.54
2018-12-16T04:04:46.748Z,1015.55
2018-12-16T04:05:46.697Z,1015.54
2018-12-16T04:06:46.649Z,1015.48
2018-12-16T04:07:46.598Z,1015.53
2018-12-16T04:08:46.553Z,1015.48
2018-12-16T04:09:46.497Z,1015.45
2018-12-16T04:10:46.448Z,1015.41
2018-12-16T04:11:46.398Z,1015.43
2018-12-16T04:12:46.348Z,1015.40
2018-12-16T04:13:46.298Z,1015.42
2018-12-16T04:14:46.248Z,1015.43
2018-12-16T04:15:46.197Z,1015.43
2018-12-16T04:16:46.146Z,1015.34
2018-12-16T04:17:46.098Z,1015.38
2018-12-16T04:18:46.051Z,1015.39
2018-12-16T04:19:45.997Z,1015.33
2018-12-16T04:20:45.947Z,1015.25
2018-12-16T04:21:45.905Z,1015.25
2018-12-16T04:22:45.848Z,1015.26
2018-12-16T04:23:45.797Z,1015.17
2018-12-16T04:24:45.747Z,1015.12
2018-12-16T04:25:45.697Z,1015.12
2018-12-16T04:26:45.649Z,1015.11
2018-12-16T04:27:45.598Z,1015.11
2018-12-16T04:28:45.547Z,1015.11
2018-12-16T04:29:45.497Z,1015.16
2018-12-16T04:30:45.451Z,1015.07
2018-12-16T04:31:45.401Z,1015.00
2018-12-16T04:32:45.347Z,1015.00
2018-12-16T04:33:45.297Z,1015.00
2018-12-16T04:34:45.261Z,1015.00
2018-12-16T04:35:45.195Z,1014.96
2018-12-16T04:36:45.149Z,1014.97
2018-12-16T04:37:45.148Z,1014.92
2018-12-16T04:38:45.047Z,1015.01
2018-12-16T04:39:44.995Z,1014.93
2018-12-16T04:40:44.947Z,1014.94
2018-12-16T04:41:44.899Z,1014.94
2018-12-16T04:42:44.846Z,1014.97
2018-12-16T04:43:44.796Z,1014.95
2018-12-16T04:44:44.747Z,1014.93
2018-12-16T04:45:44.696Z,1014.87
2018-12-16T04:46:44.647Z,1014.85
2018-12-16T04:47:44.597Z,1014.82
2018-12-16T04:48:44.546Z,1014.87
2018-12-16T04:49:44.497Z,1014.84
2018-12-16T04:50:44.448Z,1014.86
2018-12-16T04:51:44.396Z,1014.84
2018-12-16T04:52:44.346Z,1014.81
2018-12-16T04:53:44.296Z,1014.80
2018-12-16T04:54:44.248Z,1014.80
2018-12-16T04:55:44.194Z,1014.83
2018-12-16T04:56:44.145Z,1014.78
2018-12-16T04:57:44.096Z,1014.82
2018-12-16T04:58:44.046Z,1014.85
2018-12-16T04:59:43.995Z,1014.78
2018-12-16T05:00:43.951Z,1014.75
2018-12-16T05:01:43.896Z,1014.79
2018-12-16T05:02:43.846Z,1014.73
2018-12-16T05:03:43.795Z,1014.75
2018-12-16T05:04:43.749Z,1014.74
2018-12-16T05:05:43.695Z,1014.75
2018-12-16T05:06:43.646Z,1014.73
2018-12-16T05:07:43.596Z,1014.72
2018-12-16T05:08:43.545Z,1014.71
2018-12-16T05:09:43.496Z,1014.71
2018-12-16T05:10:43.497Z,1014.67
2018-12-16T05:11:43.416Z,1014.65
2018-12-16T05:12:43.349Z,1014.59
2018-12-16T05:13:43.295Z,1014.60
2018-12-16T05:14:43.246Z,1014.63
2018-12-16T05:15:43.194Z,1014.61
2018-12-16T05:16:43.148Z,1014.55
2018-12-16T05:17:43.096Z,1014.58
2018-12-16T05:18:43.100Z,1014.58
2018-12-16T05:19:42.995Z,1014.50
2018-12-16T05:20:42.945Z,1014.45
2018-12-16T05:21:42.896Z,1014.42
2018-12-16T05:22:42.848Z,1014.30
2018-12-16T05:23:42.796Z,1014.33
2018-12-16T05:24:42.795Z,1014.37
2018-12-16T05:25:42.695Z,1014.33
2018-12-16T05:26:42.644Z,1014.28
2018-12-16T05:27:42.594Z,1014.30
2018-12-16T05:28:42.544Z,1014.27
2018-12-16T05:29:42.494Z,1014.25
2018-12-16T05:30:42.445Z,1014.22
2018-12-16T05:31:42.394Z,1014.21
2018-12-16T05:32:42.349Z,1014.19
2018-12-16T05:33:42.293Z,1014.21
2018-12-16T05:34:42.245Z,1014.18
2018-12-16T05:35:42.194Z,1014.15
2018-12-16T05:36:42.143Z,1014.14
2018-12-16T05:37:42.098Z,1014.08
2018-12-16T05:38:42.044Z,1014.08
2018-12-16T05:39:41.994Z,1014.07
2018-12-16T05:40:41.946Z,1014.05
2018-12-16T05:41:41.893Z,1014.00
2018-12-16T05:42:41.896Z,1014.00
2018-12-16T05:43:41.793Z,1013.99
2018-12-16T05:44:41.744Z,1013.98
2018-12-16T05:45:41.692Z,1014.00
2018-12-16T05:46:41.643Z,1013.97
2018-12-16T05:47:41.593Z,1013.99
2018-12-16T05:48:41.543Z,1013.95
2018-12-16T05:49:41.492Z,1013.96
2018-12-16T05:50:41.443Z,1013.94
2018-12-16T05:51:41.392Z,1013.96
2018-12-16T05:52:41.342Z,1013.93
2018-12-16T05:53:41.291Z,1013.94
2018-12-16T05:54:41.243Z,1013.97
2018-12-16T05:55:41.192Z,1013.97
2018-12-16T05:56:41.142Z,1013.97
2018-12-16T05:57:41.092Z,1013.88
2018-12-16T05:58:41.043Z,1013.94
2018-12-16T05:59:40.991Z,1013.88
2018-12-16T06:00:40.942Z,1013.96
2018-12-16T06:01:40.893Z,1013.90
2018-12-16T06:02:40.846Z,1013.88
2018-12-16T06:03:40.790Z,1013.86
2018-12-16T06:04:40.741Z,1013.84
2018-12-16T06:05:40.693Z,1013.85
2018-12-16T06:06:40.642Z,1013.85
2018-12-16T06:07:40.591Z,1013.84
2018-12-16T06:08:40.541Z,1013.82
2018-12-16T06:09:40.492Z,1013.75
2018-12-16T06:10:40.441Z,1013.78
2018-12-16T06:11:40.405Z,1013.77
2018-12-16T06:12:40.341Z,1013.80
2018-12-16T06:13:40.290Z,1013.78
2018-12-16T06:14:40.240Z,1013.77
2018-12-16T06:15:40.191Z,1013.74
2018-12-16T06:16:40.141Z,1013.72
2018-12-16T06:17:40.094Z,1013.68
2018-12-16T06:18:40.041Z,1013.74
2018-12-16T06:19:39.991Z,1013.67
2018-12-16T06:20:39.941Z,1013.69
2018-12-16T06:21:39.890Z,1013.66
2018-12-16T06:22:39.841Z,1013.63
2018-12-16T06:23:39.789Z,1013.66
2018-12-16T06:24:39.747Z,1013.63
2018-12-16T06:25:39.691Z,1013.59
2018-12-16T06:26:41.063Z,1013.63
2018-12-16T06:27:39.590Z,1013.58
2018-12-16T06:28:39.540Z,1013.60
2018-12-16T06:29:39.490Z,1013.60
2018-12-16T06:30:39.440Z,1013.59
2018-12-16T06:31:39.388Z,1013.60
2018-12-16T06:32:39.340Z,1013.63
2018-12-16T06:33:39.290Z,1013.61
2018-12-16T06:34:39.240Z,1013.65
2018-12-16T06:35:39.190Z,1013.63
2018-12-16T06:36:39.139Z,1013.67
2018-12-16T06:37:39.092Z,1013.62
2018-12-16T06:38:39.040Z,1013.57
2018-12-16T06:39:38.990Z,1013.56
2018-12-16T06:40:38.939Z,1013.58
2018-12-16T06:41:38.888Z,1013.53
2018-12-16T06:42:38.839Z,1013.56
2018-12-16T06:43:38.789Z,1013.55
2018-12-16T06:44:38.739Z,1013.55
2018-12-16T06:45:38.688Z,1013.51
2018-12-16T06:46:38.640Z,1013.46
2018-12-16T06:47:38.591Z,1013.44
2018-12-16T06:48:38.542Z,1013.43
2018-12-16T06:49:38.488Z,1013.41
2018-12-16T06:50:38.439Z,1013.37
2018-12-16T06:51:38.388Z,1013.34
2018-12-16T06:52:38.340Z,1013.32
2018-12-16T06:53:38.291Z,1013.27
2018-12-16T06:54:38.239Z,1013.22
2018-12-16T06:55:43.258Z,1013.27
2018-12-16T06:56:38.138Z,1013.18
2018-12-16T06:57:38.088Z,1013.20
2018-12-16T06:58:38.039Z,1013.16
2018-12-16T06:59:37.990Z,1013.20
2018-12-16T07:00:37.938Z,1013.13
2018-12-16T07:01:38.204Z,1013.18
2018-12-16T07:02:37.838Z,1013.18
2018-12-16T07:03:37.787Z,1013.20
2018-12-16T07:04:37.787Z,1013.14
2018-12-16T07:05:37.686Z,1013.19
2018-12-16T07:06:37.639Z,1013.21
2018-12-16T07:07:37.586Z,1013.08
2018-12-16T07:08:37.538Z,1013.12
2018-12-16T07:09:37.488Z,1013.15
2018-12-16T07:10:37.436Z,1013.12
2018-12-16T07:11:37.386Z,1013.17
2018-12-16T07:12:37.336Z,1013.19
2018-12-16T07:13:37.287Z,1013.20
2018-12-16T07:14:37.237Z,1013.19
2018-12-16T07:15:37.188Z,1013.20
2018-12-16T07:16:37.136Z,1013.34
2018-12-16T07:17:37.086Z,1013.33
2018-12-16T07:18:37.060Z,1013.44
2018-12-16T07:19:37.012Z,1013.39
2018-12-16T07:20:36.935Z,1013.45
2018-12-16T07:21:36.884Z,1013.50
2018-12-16T07:22:36.865Z,1013.50
2018-12-16T07:23:36.787Z,1013.55
2018-12-16T07:24:36.747Z,1013.63
2018-12-16T07:25:36.685Z,1013.67
2018-12-16T07:26:36.635Z,1013.53
2018-12-16T07:27:36.585Z,1013.54
2018-12-16T07:28:36.552Z,1013.56
2018-12-16T07:29:36.485Z,1013.50
2018-12-16T07:30:36.451Z,1013.56
2018-12-16T07:31:36.384Z,1013.58
2018-12-16T07:32:36.334Z,1013.51
2018-12-16T07:33:36.285Z,1013.46
2018-12-16T07:34:36.235Z,1013.47
2018-12-16T07:35:36.191Z,1013.44
2018-12-16T07:36:36.136Z,1013.46
2018-12-16T07:37:36.084Z,1013.47
2018-12-16T07:38:36.044Z,1013.46
2018-12-16T07:39:36.005Z,1013.43
2018-12-16T07:40:35.947Z,1013.47
2018-12-16T07:41:35.937Z,1013.51
2018-12-16T07:42:35.850Z,1013.49
2018-12-16T07:43:35.786Z,1013.57
2018-12-16T07:44:35.732Z,1013.51
2018-12-16T07:45:35.691Z,1013.54
2018-12-16T07:46:35.632Z,1013.48
2018-12-16T07:47:35.583Z,1013.49
2018-12-16T07:48:35.558Z,1013.53
2018-12-16T07:49:35.482Z,1013.50
2018-12-16T07:50:35.432Z,1013.49
2018-12-16T07:51:35.380Z,1013.45
2018-12-16T07:52:35.338Z,1013.44
2018-12-16T07:53:35.306Z,1013.46
2018-12-16T07:54:35.233Z,1013.43
2018-12-16T07:55:35.188Z,1013.45
2018-12-16T07:56:35.163Z,1013.41
2018-12-16T07:57:35.116Z,1013.46
2018-12-16T07:58:35.032Z,1013.40
2018-12-16T07:59:34.980Z,1013.39
2018-12-16T08:00:34.932Z,1013.30
2018-12-16T08:01:34.881Z,1013.44
2018-12-16T08:02:34.836Z,1013.37
2018-12-16T08:03:34.779Z,1013.30
2018-12-16T08:04:34.729Z,1013.30
2018-12-16T08:05:34.687Z,1013.34
2018-12-16T08:06:34.649Z,1013.31
2018-12-16T08:07:34.580Z,1013.27
2018-12-16T08:08:34.530Z,1013.24
2018-12-16T08:09:34.481Z,1013.26
2018-12-16T08:10:34.431Z,1013.20
2018-12-16T08:11:34.380Z,1013.16
2018-12-16T08:12:34.329Z,1013.20
2018-12-16T08:13:34.280Z,1013.20
2018-12-16T08:14:34.228Z,1013.20
2018-12-16T08:15:34.179Z,1013.20
2018-12-16T08:16:34.136Z,1013.22
2018-12-16T08:17:34.078Z,1013.19
2018-12-16T08:18:34.033Z,1013.15
2018-12-16T08:19:33.980Z,1013.23
2018-12-16T08:20:33.929Z,1013.12
2018-12-16T08:21:33.879Z,1013.09
2018-12-16T08:22:33.829Z,1013.07
2018-12-16T08:23:35.452Z,1013.09
2018-12-16T08:24:33.728Z,1013.04
2018-12-16T08:25:33.728Z,1013.07
2018-12-16T08:26:33.629Z,1013.06
2018-12-16T08:27:33.579Z,1013.05
2018-12-16T08:28:33.529Z,1013.08
2018-12-16T08:29:33.483Z,1013.07
2018-12-16T08:30:33.428Z,1013.11
2018-12-16T08:31:33.378Z,1013.10
2018-12-16T08:32:33.326Z,1013.11
2018-12-16T08:33:33.277Z,1013.09
2018-12-16T08:34:33.227Z,1013.12
2018-12-16T08:35:33.177Z,1013.06
2018-12-16T08:36:33.127Z,1013.13
2018-12-16T08:37:33.076Z,1013.10
2018-12-16T08:38:33.027Z,1013.10
2018-12-16T08:39:32.976Z,1013.13
2018-12-16T08:40:32.927Z,1013.18
2018-12-16T08:41:32.878Z,1013.15
2018-12-16T08:42:32.827Z,1013.24
2018-12-16T08:43:32.779Z,1013.20
2018-12-16T08:44:32.727Z,1013.23
2018-12-16T08:45:32.678Z,1013.12
2018-12-16T08:46:32.629Z,1013.20
2018-12-16T08:47:33.240Z,1013.12
2018-12-16T08:48:32.526Z,1013.13
2018-12-16T08:49:32.476Z,1013.14
2018-12-16T08:50:32.431Z,1013.11
2018-12-16T08:51:32.376Z,1013.11
2018-12-16T08:52:32.326Z,1013.13
2018-12-16T08:53:32.334Z,1013.12
2018-12-16T08:54:32.226Z,1013.19
2018-12-16T08:55:32.175Z,1013.24
2018-12-16T08:56:32.126Z,1013.17
2018-12-16T08:57:32.076Z,1013.29
2018-12-16T08:58:32.026Z,1013.17
2018-12-16T08:59:31.976Z,1013.11
2018-12-16T09:00:31.926Z,1013.09
2018-12-16T09:01:31.876Z,1013.05
2018-12-16T09:02:31.830Z,1013.11
2018-12-16T09:03:31.776Z,1013.08
2018-12-16T09:04:31.727Z,1013.08
2018-12-16T09:05:31.678Z,1013.11
2018-12-16T09:06:31.628Z,1013.06
2018-12-16T09:07:37.309Z,1013.07
2018-12-16T09:08:31.526Z,1013.05
2018-12-16T09:09:31.477Z,1013.12
2018-12-16T09:10:34.342Z,1013.07
2018-12-16T09:11:31.375Z,1013.04
2018-12-16T09:12:31.325Z,1013.03
2018-12-16T09:13:31.275Z,1012.94
2018-12-16T09:14:31.225Z,1012.92
2018-12-16T09:15:31.174Z,1012.95
2018-12-16T09:16:31.125Z,1012.93
2018-12-16T09:17:31.075Z,1012.89
2018-12-16T09:18:31.025Z,1012.94
2018-12-16T09:19:30.974Z,1012.86
2018-12-16T09:20:30.924Z,1012.87
2018-12-16T09:21:30.878Z,1012.86
2018-12-16T09:22:32.215Z,1012.84
2018-12-16T09:23:30.774Z,1012.85
2018-12-16T09:24:36.998Z,1012.78
2018-12-16T09:25:30.674Z,1012.81
2018-12-16T09:26:30.623Z,1012.75
2018-12-16T09:27:30.573Z,1012.79
2018-12-16T09:28:30.523Z,1012.76
2018-12-16T09:29:30.473Z,1012.73
2018-12-16T09:30:30.424Z,1012.80
2018-12-16T09:31:30.373Z,1012.78
2018-12-16T09:32:30.323Z,1012.74
2018-12-16T09:33:30.273Z,1012.69
2018-12-16T09:34:30.223Z,1012.76
2018-12-16T09:35:30.171Z,1012.71
2018-12-16T09:36:30.124Z,1012.68
2018-12-16T09:37:30.173Z,1012.69
2018-12-16T09:38:30.023Z,1012.70
2018-12-16T09:39:29.972Z,1012.68
2018-12-16T09:40:29.923Z,1012.63
2018-12-16T09:41:29.874Z,1012.60
2018-12-16T09:42:29.823Z,1012.63
2018-12-16T09:43:29.771Z,1012.55
2018-12-16T09:44:29.723Z,1012.52
2018-12-16T09:45:29.675Z,1012.50
2018-12-16T09:46:30.124Z,1012.51
2018-12-16T09:47:29.573Z,1012.50
2018-12-16T09:48:29.523Z,1012.54
2018-12-16T09:49:29.473Z,1012.47
2018-12-16T09:50:29.423Z,1012.39
2018-12-16T09:51:29.372Z,1012.44
2018-12-16T09:52:29.322Z,1012.44
2018-12-16T09:53:29.272Z,1012.31
2018-12-16T09:54:29.223Z,1012.34
2018-12-16T09:55:29.175Z,1012.34
2018-12-16T09:56:29.122Z,1012.35
2018-12-16T09:57:29.072Z,1012.34
2018-12-16T09:58:29.023Z,1012.25
2018-12-16T09:59:28.973Z,1012.25
2018-12-16T10:00:28.926Z,1012.23
2018-12-16T10:01:28.871Z,1012.24
2018-12-16T10:02:28.822Z,1012.16
2018-12-16T10:03:28.779Z,1012.25
2018-12-16T10:04:28.722Z,1012.25
2018-12-16T10:05:28.672Z,1012.27
2018-12-16T10:06:28.622Z,1012.21
2018-12-16T10:07:28.572Z,1012.18
2018-12-16T10:08:28.521Z,1012.23
2018-12-16T10:09:28.472Z,1012.15
2018-12-16T10:10:28.428Z,1012.24
2018-12-16T10:11:28.371Z,1012.14
2018-12-16T10:12:28.322Z,1012.19
2018-12-16T10:13:28.278Z,1012.15
2018-12-16T10:14:28.221Z,1012.16
2018-12-16T10:15:29.235Z,1012.20
2018-12-16T10:16:28.121Z,1012.11
2018-12-16T10:17:28.070Z,1012.15
2018-12-16T10:18:28.022Z,1012.12
2018-12-16T10:19:27.970Z,1012.07
2018-12-16T10:20:27.920Z,1012.09
2018-12-16T10:21:27.871Z,1012.16
2018-12-16T10:22:27.821Z,1012.18
2018-12-16T10:23:27.770Z,1012.11
2018-12-16T10:24:27.720Z,1012.24
2018-12-16T10:25:27.669Z,1012.15
2018-12-16T10:26:27.620Z,1012.15
2018-12-16T10:27:27.570Z,1012.07
2018-12-16T10:28:27.519Z,1012.04
2018-12-16T10:29:27.471Z,1012.07
2018-12-16T10:30:27.420Z,1012.09
2018-12-16T10:31:27.368Z,1012.09
2018-12-16T10:32:27.321Z,1012.01
2018-12-16T10:33:27.269Z,1012.01
2018-12-16T10:34:27.219Z,1011.98
2018-12-16T10:35:27.169Z,1011.97
2018-12-16T10:36:27.119Z,1011.96
2018-12-16T10:37:27.071Z,1011.98
2018-12-16T10:38:27.020Z,1011.89
2018-12-16T10:39:26.969Z,1011.92
2018-12-16T10:40:26.918Z,1011.97
2018-12-16T10:41:26.869Z,1011.91
2018-12-16T10:42:26.818Z,1011.87
2018-12-16T10:43:26.768Z,1011.85
2018-12-16T10:44:26.718Z,1011.93
2018-12-16T10:45:26.668Z,1011.90
2018-12-16T10:46:26.618Z,1011.96
2018-12-16T10:47:26.567Z,1011.84
2018-12-16T10:48:26.569Z,1011.85
2018-12-16T10:49:26.468Z,1011.82
2018-12-16T10:50:26.418Z,1011.81
2018-12-16T10:51:26.367Z,1011.78
2018-12-16T10:52:26.317Z,1011.78
2018-12-16T10:53:26.267Z,1011.67
2018-12-16T10:54:26.217Z,1011.70
2018-12-16T10:55:26.166Z,1011.64
2018-12-16T10:56:26.117Z,1011.71
2018-12-16T10:57:26.067Z,1011.69
2018-12-16T10:58:26.017Z,1011.66
2018-12-16T10:59:25.966Z,1011.67
2018-12-16T11:00:25.917Z,1011.69
2018-12-16T11:01:25.867Z,1011.71
2018-12-16T11:02:25.817Z,1011.60
2018-12-16T11:03:25.766Z,1011.60
2018-12-16T11:04:25.716Z,1011.56
2018-12-16T11:05:25.667Z,1011.56
2018-12-16T11:06:25.616Z,1011.52
2018-12-16T11:07:25.570Z,1011.52
2018-12-16T11:08:25.516Z,1011.59
2018-12-16T11:09:25.466Z,1011.45
2018-12-16T11:10:25.417Z,1011.42
2018-12-16T11:11:25.365Z,1011.53
2018-12-16T11:12:25.315Z,1011.49
2018-12-16T11:13:25.266Z,1011.44
2018-12-16T11:14:25.216Z,1011.44
2018-12-16T11:15:25.165Z,1011.38
2018-12-16T11:16:25.114Z,1011.44
2018-12-16T11:17:25.065Z,1011.39
2018-12-16T11:18:25.015Z,1011.38
2018-12-16T11:19:24.965Z,1011.43
2018-12-16T11:20:24.915Z,1011.34
2018-12-16T11:21:24.865Z,1011.39
2018-12-16T11:22:24.815Z,1011.43
2018-12-16T11:23:24.763Z,1011.33
2018-12-16T11:24:24.715Z,1011.41
2018-12-16T11:25:24.664Z,1011.35
2018-12-16T11:26:24.613Z,1011.31
2018-12-16T11:27:24.564Z,1011.34
2018-12-16T11:28:24.515Z,1011.40
2018-12-16T11:29:24.463Z,1011.32
2018-12-16T11:30:24.414Z,1011.37
2018-12-16T11:31:24.364Z,1011.28
2018-12-16T11:32:24.315Z,1011.27
2018-12-16T11:33:24.264Z,1011.33
2018-12-16T11:34:24.214Z,1011.26
2018-12-16T11:35:24.213Z,1011.25
2018-12-16T11:36:24.114Z,1011.25
2018-12-16T11:37:24.071Z,1011.18
2018-12-16T11:38:24.014Z,1011.22
2018-12-16T11:39:23.963Z,1011.15
2018-12-16T11:40:23.912Z,1011.17
2018-12-16T11:41:23.863Z,1011.20
2018-12-16T11:42:23.813Z,1011.13
2018-12-16T11:43:23.761Z,1011.09
2018-12-16T11:44:23.714Z,1011.11
2018-12-16T11:45:23.663Z,1011.10
2018-12-16T11:46:23.614Z,1011.10
2018-12-16T11:47:23.562Z,1011.12
2018-12-16T11:48:23.514Z,1011.11
2018-12-16T11:49:23.461Z,1011.11
2018-12-16T11:50:23.514Z,1011.11
2018-12-16T11:51:23.362Z,1011.07
2018-12-16T11:52:24.998Z,1011.12
2018-12-16T11:53:23.262Z,1011.10
2018-12-16T11:54:23.215Z,1011.00
2018-12-16T11:55:23.163Z,1010.99
2018-12-16T11:56:23.118Z,1010.95
2018-12-16T11:57:23.062Z,1010.92
2018-12-16T11:58:23.012Z,1010.85
2018-12-16T11:59:22.962Z,1010.87
2018-12-16T12:00:22.912Z,1010.82
2018-12-16T12:01:22.864Z,1010.86
2018-12-16T12:02:22.811Z,1010.87
2018-12-16T12:03:22.760Z,1010.87
2018-12-16T12:04:22.712Z,1010.88
2018-12-16T12:05:22.661Z,1010.80